createdAt,value
2018-03-18T00:00:36.333Z,92332.38
2018-03-18T00:03:04.024Z,92340.30
2018-03-18T00:05:31.676Z,92344.72
2018-03-18T00:07:59.331Z,92346.13
2018-03-18T00:10:26.922Z,92353.02
2018-03-18T00:12:54.597Z,92345.78
2018-03-18T00:15:22.258Z,92344.89
2018-03-18T00:17:49.919Z,92356.28
2018-03-18T00:20:17.610Z,92352.22
2018-03-18T00:22:45.220Z,92342.52
2018-03-18T00:25:12.928Z,92345.41
2018-03-18T00:27:40.522Z,92357.57
2018-03-18T00:30:08.187Z,92350.45
2018-03-18T00:32:36.364Z,92344.59
2018-03-18T00:35:04.237Z,92348.27
2018-03-18T00:37:31.879Z,92350.33
2018-03-18T00:39:59.517Z,92354.27
2018-03-18T00:42:27.175Z,92353.30
2018-03-18T00:44:54.823Z,92346.54
2018-03-18T00:47:22.419Z,92353.28
2018-03-18T00:49:50.093Z,92355.75
2018-03-18T00:52:17.894Z,92355.47
2018-03-18T00:54:45.511Z,92355.29
2018-03-18T00:57:13.191Z,92353.33
2018-03-18T00:59:41.393Z,92348.42
2018-03-18T01:02:09.125Z,92355.95
2018-03-18T01:04:36.735Z,92350.22
2018-03-18T01:07:04.655Z,92355.47
2018-03-18T01:09:32.345Z,92347.20
2018-03-18T01:12:00.211Z,92351.48
2018-03-18T01:14:28.051Z,92347.73
2018-03-18T01:16:55.674Z,92346.39
2018-03-18T01:19:24.605Z,92349.48
2018-03-18T01:21:52.581Z,92342.45
2018-03-18T01:24:20.303Z,92344.83
2018-03-18T01:26:48.041Z,92341.36
2018-03-18T01:29:15.631Z,92346.16
2018-03-18T01:31:43.323Z,92348.64
2018-03-18T01:34:10.915Z,92348.34
2018-03-18T01:36:38.635Z,92351.09
2018-03-18T01:39:06.330Z,92349.72
2018-03-18T01:41:33.987Z,92346.27
2018-03-18T01:44:01.948Z,92342.08
2018-03-18T01:46:29.582Z,92336.93
2018-03-18T01:48:57.393Z,92343.07
2018-03-18T01:51:25.116Z,92340.59
2018-03-18T01:53:53.442Z,92336.54
2018-03-18T01:56:21.277Z,92337.88
2018-03-18T01:58:49.715Z,92338.80
2018-03-18T02:01:17.342Z,92339.05
2018-03-18T02:03:45.295Z,92341.60
2018-03-18T02:06:13.772Z,92341.80
2018-03-18T02:08:41.785Z,92342.75
2018-03-18T02:11:09.500Z,92341.47
2018-03-18T02:13:37.155Z,92345.91
2018-03-18T02:16:04.852Z,92348.58
2018-03-18T02:18:32.695Z,92338.31
2018-03-18T02:21:00.553Z,92330.91
2018-03-18T02:23:28.228Z,92339.35
2018-03-18T02:25:56.157Z,92333.16
2018-03-18T02:28:24.167Z,92331.17
2018-03-18T02:30:52.361Z,92325.76
2018-03-18T02:33:20.091Z,92334.02
2018-03-18T02:35:47.910Z,92339.75
2018-03-18T02:38:16.271Z,92337.70
2018-03-18T02:40:44.545Z,92332.58
2018-03-18T02:43:12.179Z,92335.55
2018-03-18T02:45:39.829Z,92331.58
2018-03-18T02:48:07.504Z,92331.70
2018-03-18T02:50:35.164Z,92329.72
2018-03-18T02:53:03.516Z,92336.38
2018-03-18T02:55:31.731Z,92328.38
2018-03-18T02:57:59.436Z,92333.31
2018-03-18T03:00:27.166Z,92333.73
2018-03-18T03:02:55.068Z,92328.31
2018-03-18T03:05:23.462Z,92328.23
2018-03-18T03:07:51.212Z,92333.38
2018-03-18T03:10:18.810Z,92328.11
2018-03-18T03:12:46.461Z,92326.05
2018-03-18T03:15:14.123Z,92320.67
2018-03-18T03:17:41.816Z,92320.98
2018-03-18T03:20:09.427Z,92323.55
2018-03-18T03:22:37.100Z,92325.16
2018-03-18T03:25:04.821Z,92325.80
2018-03-18T03:27:33.050Z,92335.11
2018-03-18T03:30:00.831Z,92336.39
2018-03-18T03:32:28.506Z,92340.34
2018-03-18T03:34:56.102Z,92335.43
2018-03-18T03:37:23.758Z,92336.30
2018-03-18T03:39:51.490Z,92331.56
2018-03-18T03:42:19.090Z,92332.73
2018-03-18T03:44:46.741Z,92327.88
2018-03-18T03:47:14.382Z,92323.23
2018-03-18T03:49:42.021Z,92325.51
2018-03-18T03:52:09.688Z,92320.70
2018-03-18T03:54:37.310Z,92328.34
2018-03-18T03:57:04.995Z,92326.16
2018-03-18T03:59:32.579Z,92333.04
2018-03-18T04:02:00.221Z,92338.92
2018-03-18T04:04:27.869Z,92335.98
2018-03-18T04:06:55.518Z,92329.48
2018-03-18T04:09:23.241Z,92326.30
2018-03-18T04:11:50.927Z,92322.28
2018-03-18T04:14:18.532Z,92328.15
2018-03-18T04:16:46.189Z,92331.84
2018-03-18T04:19:13.780Z,92328.73
2018-03-18T04:21:41.445Z,92325.59
2018-03-18T04:24:09.675Z,92321.23
2018-03-18T04:26:37.446Z,92331.83
2018-03-18T04:29:05.200Z,92335.56
2018-03-18T04:31:33.001Z,92343.41
2018-03-18T04:34:00.805Z,92342.13
2018-03-18T04:36:29.042Z,92341.19
2018-03-18T04:38:56.644Z,92334.89
2018-03-18T04:41:24.281Z,92346.02
2018-03-18T04:43:51.941Z,92345.37
2018-03-18T04:46:19.575Z,92342.96
2018-03-18T04:48:47.182Z,92343.58
2018-03-18T04:51:14.830Z,92349.26
2018-03-18T04:53:42.878Z,92339.70
2018-03-18T04:56:10.513Z,92341.50
2018-03-18T04:58:38.110Z,92354.96
2018-03-18T05:01:05.789Z,92348.17
2018-03-18T05:03:33.380Z,92350.95
2018-03-18T05:06:01.085Z,92353.58
2018-03-18T05:08:28.821Z,92355.64
2018-03-18T05:10:56.484Z,92353.38
2018-03-18T05:13:24.096Z,92347.19
2018-03-18T05:15:51.749Z,92357.20
2018-03-18T05:18:19.428Z,92350.39
2018-03-18T05:20:47.107Z,92348.73
2018-03-18T05:23:14.731Z,92354.66
2018-03-18T05:25:42.373Z,92354.17
2018-03-18T05:28:09.962Z,92348.72
2018-03-18T05:30:37.654Z,92349.95
2018-03-18T05:33:05.526Z,92347.59
2018-03-18T05:35:33.133Z,92341.24
2018-03-18T05:38:00.910Z,92338.71
2018-03-18T05:40:28.672Z,92336.84
2018-03-18T05:42:56.318Z,92338.09
2018-03-18T05:45:24.625Z,92336.89
2018-03-18T05:47:52.278Z,92337.97
2018-03-18T05:50:20.157Z,92340.03
2018-03-18T05:52:47.816Z,92336.84
2018-03-18T05:55:15.477Z,92335.22
2018-03-18T05:57:43.206Z,92341.80
2018-03-18T06:00:10.879Z,92342.69
2018-03-18T06:02:38.513Z,92340.47
2018-03-18T06:05:06.131Z,92339.49
2018-03-18T06:07:33.786Z,92341.56
2018-03-18T06:10:01.411Z,92350.58
2018-03-18T06:12:29.068Z,92353.73
2018-03-18T06:14:56.677Z,92356.03
2018-03-18T06:17:24.321Z,92360.97
2018-03-18T06:19:52.208Z,92371.86
2018-03-18T06:22:19.974Z,92361.48
2018-03-18T06:24:47.628Z,92353.21
2018-03-18T06:27:15.345Z,92354.30
2018-03-18T06:29:43.015Z,92366.51
2018-03-18T06:32:10.717Z,92354.05
2018-03-18T06:34:38.338Z,92369.36
2018-03-18T06:37:06.007Z,92364.26
2018-03-18T06:39:33.635Z,92367.84
2018-03-18T06:42:01.372Z,92371.75
2018-03-18T06:44:29.322Z,92374.47
2018-03-18T06:46:57.109Z,92379.80
2018-03-18T06:49:25.315Z,92384.80
2018-03-18T06:51:53.322Z,92394.41
2018-03-18T06:54:20.932Z,92398.03
2018-03-18T06:56:48.828Z,92397.59
2018-03-18T06:59:16.535Z,92394.16
2018-03-18T07:01:44.470Z,92394.23
2018-03-18T07:04:12.681Z,92393.13
2018-03-18T07:06:40.556Z,92403.95
2018-03-18T07:09:08.769Z,92407.47
2018-03-18T07:11:36.493Z,92408.02
2018-03-18T07:14:04.777Z,92410.88
2018-03-18T07:16:32.797Z,92409.30
2018-03-18T07:19:00.688Z,92413.22
2018-03-18T07:21:28.580Z,92408.95
2018-03-18T07:23:56.240Z,92411.64
2018-03-18T07:26:24.108Z,92413.68
2018-03-18T07:28:52.177Z,92410.94
2018-03-18T07:31:19.835Z,92409.59
2018-03-18T07:33:47.838Z,92416.72
2018-03-18T07:36:15.728Z,92410.63
2018-03-18T07:38:43.757Z,92411.05
2018-03-18T07:41:11.397Z,92410.86
2018-03-18T07:43:39.382Z,92408.48
2018-03-18T07:46:07.043Z,92401.92
2018-03-18T07:48:34.927Z,92407.36
2018-03-18T07:51:02.680Z,92413.92
2018-03-18T07:53:30.525Z,92417.69
2018-03-18T07:55:58.301Z,92414.30
2018-03-18T07:58:26.165Z,92414.91
2018-03-18T08:00:54.862Z,92416.37
2018-03-18T08:03:22.742Z,92416.89
2018-03-18T08:05:52.241Z,92408.98
2018-03-18T08:08:20.225Z,92411.81
2018-03-18T08:10:48.007Z,92403.89
2018-03-18T08:13:15.649Z,92397.48
2018-03-18T08:15:43.480Z,92401.59
2018-03-18T08:18:11.546Z,92400.42
2018-03-18T08:20:39.530Z,92396.71
2018-03-18T08:23:08.123Z,92393.20
2018-03-18T08:25:36.432Z,92391.91
2018-03-18T08:28:04.022Z,92391.55
2018-03-18T08:30:31.726Z,92410.02
2018-03-18T08:32:59.935Z,92412.40
2018-03-18T08:35:27.662Z,92400.88
2018-03-18T08:37:55.329Z,92400.20
2018-03-18T08:40:23.017Z,92395.75
2018-03-18T08:42:50.869Z,92403.85
2018-03-18T08:45:18.492Z,92399.23
2018-03-18T08:47:46.197Z,92400.88
2018-03-18T08:50:13.849Z,92405.73
2018-03-18T08:52:41.560Z,92401.95
2018-03-18T08:55:09.550Z,92399.42
2018-03-18T08:57:37.241Z,92400.23
2018-03-18T09:00:05.111Z,92400.41
2018-03-18T09:02:33.409Z,92396.57
2018-03-18T09:05:02.686Z,92394.38
2018-03-18T09:07:30.765Z,92391.37
2018-03-18T09:09:58.548Z,92396.38
2018-03-18T09:12:26.592Z,92392.13
2018-03-18T09:14:54.613Z,92388.45
2018-03-18T09:17:22.312Z,92391.20
2018-03-18T09:19:49.990Z,92387.77
2018-03-18T09:22:17.654Z,92385.39
2018-03-18T09:24:45.650Z,92388.59
2018-03-18T09:27:13.639Z,92391.70
2018-03-18T09:29:41.897Z,92396.53
2018-03-18T09:32:10.709Z,92393.14
2018-03-18T09:34:39.126Z,92393.78
2018-03-18T09:37:07.082Z,92387.27
2018-03-18T09:39:35.682Z,92392.61
2018-03-18T09:42:03.746Z,92390.73
2018-03-18T09:44:32.060Z,92396.69
2018-03-18T09:46:59.908Z,92392.20
2018-03-18T09:49:27.612Z,92392.89
2018-03-18T09:51:55.426Z,92390.04
2018-03-18T09:54:23.073Z,92380.80
2018-03-18T09:56:51.016Z,92380.78
2018-03-18T09:59:18.699Z,92378.47
2018-03-18T10:01:46.456Z,92380.56
2018-03-18T10:04:14.067Z,92383.31
2018-03-18T10:06:41.716Z,92382.09
2018-03-18T10:09:09.483Z,92372.01
2018-03-18T10:11:37.152Z,92368.86
2018-03-18T10:14:04.882Z,92369.80
2018-03-18T10:16:33.615Z,92361.98
2018-03-18T10:19:01.698Z,92365.98
2018-03-18T10:21:29.419Z,92360.48
2018-03-18T10:23:57.112Z,92359.97
2018-03-18T10:26:24.816Z,92352.66
2018-03-18T10:28:52.481Z,92361.84
2018-03-18T10:31:20.304Z,92354.22
2018-03-18T10:33:48.004Z,92353.86
2018-03-18T10:36:15.658Z,92350.44
2018-03-18T10:38:43.316Z,92346.55
2018-03-18T10:41:11.024Z,92335.64
2018-03-18T10:43:38.685Z,92343.36
2018-03-18T10:46:06.385Z,92344.06
2018-03-18T10:48:34.068Z,92341.39
2018-03-18T10:51:01.825Z,92342.73
2018-03-18T10:53:29.486Z,92346.27
2018-03-18T10:55:57.208Z,92346.29
2018-03-18T10:58:24.890Z,92348.72
2018-03-18T11:00:53.412Z,92330.45
2018-03-18T11:03:23.636Z,92331.11
2018-03-18T11:05:51.279Z,92329.67
2018-03-18T11:08:18.940Z,92326.53
2018-03-18T11:10:46.591Z,92324.98
2018-03-18T11:13:14.260Z,92319.30
2018-03-18T11:15:41.950Z,92318.21
2018-03-18T11:18:10.864Z,92322.77
2018-03-18T11:20:38.566Z,92321.83
2018-03-18T11:23:06.319Z,92309.92
2018-03-18T11:25:33.938Z,92314.61
2018-03-18T11:28:01.682Z,92317.55
2018-03-18T11:30:29.504Z,92314.48
2018-03-18T11:32:57.129Z,92314.86
2018-03-18T11:35:24.794Z,92326.03
2018-03-18T11:37:52.576Z,92316.66
2018-03-18T11:40:20.252Z,92316.01
2018-03-18T11:42:48.042Z,92316.55
2018-03-18T11:45:15.818Z,92316.84
2018-03-18T11:47:43.460Z,92323.36
2018-03-18T11:50:11.215Z,92324.65
2018-03-18T11:52:38.879Z,92313.67
2018-03-18T11:55:06.744Z,92317.36
2018-03-18T11:57:34.366Z,92314.09
2018-03-18T12:00:02.042Z,92312.84
2018-03-18T12:02:29.734Z,92313.95
2018-03-18T12:04:57.368Z,92317.21
2018-03-18T12:07:25.103Z,92306.78
2018-03-18T12:09:52.819Z,92304.25
2018-03-18T12:12:20.520Z,92308.02
2018-03-18T12:14:49.390Z,92311.56
2018-03-18T12:17:17.124Z,92308.95
2018-03-18T12:19:44.957Z,92302.67
2018-03-18T12:22:12.720Z,92299.21
2018-03-18T12:24:40.427Z,92302.14
2018-03-18T12:27:08.113Z,92308.84
2018-03-18T12:29:36.854Z,92303.37
2018-03-18T12:32:04.577Z,92322.15
2018-03-18T12:34:32.213Z,92316.59
2018-03-18T12:36:59.833Z,92321.89
2018-03-18T12:39:48.161Z,92322.65
2018-03-18T12:42:27.832Z,92321.53
2018-03-18T12:44:55.719Z,92321.66
2018-03-18T12:47:23.423Z,92333.22
2018-03-18T12:49:51.969Z,92333.41
2018-03-18T12:52:19.640Z,92347.25
2018-03-18T12:54:47.295Z,92346.13
2018-03-18T12:57:15.052Z,92336.95
2018-03-18T12:59:42.933Z,92349.87
2018-03-18T13:02:10.594Z,92341.58
2018-03-18T13:04:38.359Z,92337.03
2018-03-18T13:07:05.990Z,92339.78
2018-03-18T13:09:33.736Z,92335.11
2018-03-18T13:12:02.503Z,92342.88
2018-03-18T13:14:30.139Z,92339.42
2018-03-18T13:16:57.829Z,92341.47
2018-03-18T13:19:25.550Z,92348.12
2018-03-18T13:21:53.390Z,92337.70
2018-03-18T13:24:21.172Z,92332.11
2018-03-18T13:26:48.996Z,92341.98
2018-03-18T13:29:16.828Z,92347.02
2018-03-18T13:31:44.523Z,92357.78
2018-03-18T13:34:12.270Z,92359.22
2018-03-18T13:36:40.190Z,92352.33
2018-03-18T13:39:08.011Z,92360.52
2018-03-18T13:41:35.794Z,92366.59
2018-03-18T13:44:03.560Z,92357.48
2018-03-18T13:46:31.279Z,92365.39
2018-03-18T13:48:58.957Z,92360.55
2018-03-18T13:51:26.755Z,92366.30
2018-03-18T13:53:54.541Z,92368.78
2018-03-18T13:56:22.329Z,92374.94
2018-03-18T13:58:50.051Z,92372.14
2018-03-18T14:01:17.763Z,92379.17
2018-03-18T14:03:45.494Z,92379.20
2018-03-18T14:06:14.040Z,92379.33
2018-03-18T14:08:41.831Z,92381.73
2018-03-18T14:11:09.684Z,92378.07
2018-03-18T14:13:38.206Z,92395.73
2018-03-18T14:16:05.936Z,92391.88
2018-03-18T14:18:33.830Z,92397.43
2018-03-18T14:21:01.591Z,92397.19
2018-03-18T14:23:29.345Z,92400.09
2018-03-18T14:25:57.096Z,92407.50
2018-03-18T14:28:24.738Z,92406.19
2018-03-18T14:30:52.470Z,92411.77
2018-03-18T14:33:20.207Z,92410.37
2018-03-18T14:35:47.900Z,92418.48
2018-03-18T14:38:15.671Z,92422.25
2018-03-18T14:40:43.315Z,92424.56
2018-03-18T14:43:11.062Z,92427.99
2018-03-18T14:45:39.087Z,92427.22
2018-03-18T14:48:06.796Z,92434.47
2018-03-18T14:50:34.425Z,92436.53
2018-03-18T14:53:02.286Z,92441.29
2018-03-18T14:55:30.056Z,92442.41
2018-03-18T14:57:57.712Z,92455.10
2018-03-18T15:00:25.415Z,92457.06
2018-03-18T15:02:53.164Z,92455.02
2018-03-18T15:05:20.891Z,92456.22
2018-03-18T15:07:48.645Z,92456.34
2018-03-18T15:10:16.340Z,92459.78
2018-03-18T15:12:44.327Z,92467.77
2018-03-18T15:15:12.244Z,92467.54
2018-03-18T15:17:40.110Z,92464.41
2018-03-18T15:20:07.811Z,92475.19
2018-03-18T15:22:35.471Z,92476.87
2018-03-18T15:25:03.293Z,92479.94
2018-03-18T15:27:31.025Z,92491.69
2018-03-18T15:29:58.622Z,92485.30
2018-03-18T15:32:26.378Z,92487.56
2018-03-18T15:34:54.136Z,92505.61
2018-03-18T15:37:21.830Z,92515.73
2018-03-18T15:39:49.562Z,92512.23
2018-03-18T15:42:17.258Z,92518.09
2018-03-18T15:44:44.965Z,92529.41
2018-03-18T15:47:12.689Z,92526.90
2018-03-18T15:49:40.406Z,92521.06
2018-03-18T15:52:08.917Z,92517.59
2018-03-18T15:54:37.702Z,92526.15
2018-03-18T15:57:06.640Z,92532.71
2018-03-18T15:59:34.261Z,92531.97
2018-03-18T16:02:01.996Z,92533.14
2018-03-18T16:04:29.672Z,92536.65
2018-03-18T16:06:58.468Z,92537.93
2018-03-18T16:09:26.854Z,92540.32
2018-03-18T16:11:55.076Z,92549.63
2018-03-18T16:14:22.798Z,92550.82
2018-03-18T16:16:50.462Z,92564.65
2018-03-18T16:19:18.189Z,92565.58
2018-03-18T16:21:45.859Z,92566.28
2018-03-18T16:24:14.456Z,92563.52
2018-03-18T16:26:42.066Z,92569.33
2018-03-18T16:29:21.506Z,92572.56
2018-03-18T16:31:49.132Z,92571.50
2018-03-18T16:34:16.825Z,92585.13
2018-03-18T16:36:44.556Z,92593.46
2018-03-18T16:39:12.271Z,92598.08
2018-03-18T16:41:40.147Z,92590.79
2018-03-18T16:44:07.881Z,92602.27
2018-03-18T16:46:35.622Z,92602.12
2018-03-18T16:49:03.423Z,92604.38
2018-03-18T16:51:31.076Z,92616.14
2018-03-18T16:53:58.832Z,92615.49
2018-03-18T16:56:26.531Z,92617.56
2018-03-18T16:58:55.382Z,92620.52
2018-03-18T17:01:23.070Z,92627.59
2018-03-18T17:03:50.835Z,92626.51
2018-03-18T17:06:19.462Z,92631.16
2018-03-18T17:08:47.193Z,92635.00
2018-03-18T17:11:14.823Z,92634.91
2018-03-18T17:13:42.519Z,92642.08
2018-03-18T17:16:10.287Z,92641.50
2018-03-18T17:18:38.049Z,92647.89
2018-03-18T17:21:05.857Z,92649.17
2018-03-18T17:23:33.510Z,92654.88
2018-03-18T17:26:01.195Z,92657.33
2018-03-18T17:28:28.949Z,92672.84
2018-03-18T17:30:56.668Z,92666.75
2018-03-18T17:33:24.320Z,92673.73
2018-03-18T17:35:52.156Z,92675.57
2018-03-18T17:38:20.068Z,92674.27
2018-03-18T17:40:50.073Z,92680.50
2018-03-18T17:43:17.978Z,92693.94
2018-03-18T17:45:58.756Z,92695.78
2018-03-18T17:48:39.064Z,92698.05
2018-03-18T17:51:19.128Z,92703.27
2018-03-18T17:54:01.729Z,92693.75
2018-03-18T17:56:37.765Z,92705.59
2018-03-18T17:59:07.969Z,92701.38
2018-03-18T18:01:38.275Z,92704.82
2018-03-18T18:04:06.866Z,92707.98
2018-03-18T18:06:35.920Z,92706.35
2018-03-18T18:09:05.038Z,92707.77
2018-03-18T18:11:35.097Z,92718.28
2018-03-18T18:14:05.588Z,92720.24
2018-03-18T18:16:34.203Z,92716.91
2018-03-18T18:19:03.909Z,92722.83
2018-03-18T18:21:31.689Z,92712.19
2018-03-18T18:24:01.811Z,92719.64
2018-03-18T18:26:29.583Z,92726.26
2018-03-18T18:28:57.920Z,92738.41
2018-03-18T18:31:25.618Z,92747.13
2018-03-18T18:33:53.361Z,92744.87
2018-03-18T18:36:21.123Z,92755.86
2018-03-18T18:38:48.868Z,92749.03
2018-03-18T18:41:16.872Z,92757.42
2018-03-18T18:43:44.671Z,92752.77
2018-03-18T18:46:12.384Z,92763.19
2018-03-18T18:48:40.147Z,92761.25
2018-03-18T18:51:09.984Z,92763.00
2018-03-18T18:53:38.497Z,92762.63
2018-03-18T18:56:06.433Z,92762.70
2018-03-18T18:58:34.101Z,92760.31
2018-03-18T19:01:01.906Z,92758.08
2018-03-18T19:03:29.679Z,92760.42
2018-03-18T19:05:57.393Z,92760.30
2018-03-18T19:08:25.204Z,92764.32
2018-03-18T19:10:52.931Z,92770.28
2018-03-18T19:13:21.866Z,92765.31
2018-03-18T19:15:49.616Z,92765.07
2018-03-18T19:18:17.711Z,92765.07
2018-03-18T19:20:45.569Z,92763.16
2018-03-18T19:23:15.318Z,92764.75
2018-03-18T19:25:43.692Z,92775.91
2018-03-18T19:28:13.588Z,92779.88
2018-03-18T19:30:41.680Z,92784.18
2018-03-18T19:33:10.832Z,92789.43
2018-03-18T19:35:40.530Z,92794.01
2018-03-18T19:38:09.543Z,92789.53
2018-03-18T19:40:38.850Z,92792.41
2018-03-18T19:43:07.978Z,92796.52
2018-03-18T19:45:36.664Z,92795.45
2018-03-18T19:48:04.710Z,92798.07
2018-03-18T19:50:34.528Z,92793.98
2018-03-18T19:53:02.793Z,92798.02
2018-03-18T19:55:31.621Z,92805.03
2018-03-18T19:58:00.193Z,92807.98
2018-03-18T20:00:28.231Z,92810.28
2018-03-18T20:02:58.476Z,92807.22
2018-03-18T20:05:26.245Z,92808.70
2018-03-18T20:07:54.027Z,92819.11
2018-03-18T20:10:24.167Z,92810.50
2018-03-18T20:12:52.657Z,92813.16
2018-03-18T20:15:20.375Z,92811.67
2018-03-18T20:17:48.095Z,92816.08
2018-03-18T20:20:16.744Z,92819.70
2018-03-18T20:22:44.625Z,92818.17
2018-03-18T20:25:12.497Z,92819.36
2018-03-18T20:27:40.958Z,92816.53
2018-03-18T20:30:08.782Z,92816.91
2018-03-18T20:32:37.212Z,92826.82
2018-03-18T20:35:05.279Z,92823.78
2018-03-18T20:37:32.959Z,92818.72
2018-03-18T20:40:01.696Z,92827.22
2018-03-18T20:42:31.333Z,92823.24
2018-03-18T20:45:00.739Z,92816.62
2018-03-18T20:47:28.611Z,92823.73
2018-03-18T20:49:56.611Z,92825.64
2018-03-18T20:52:25.088Z,92828.20
2018-03-18T20:54:53.111Z,92835.12
2018-03-18T20:57:22.332Z,92834.78
2018-03-18T20:59:51.521Z,92839.16
2018-03-18T21:02:19.213Z,92830.59
2018-03-18T21:04:47.586Z,92824.58
2018-03-18T21:07:15.330Z,92829.28
2018-03-18T21:09:42.991Z,92830.13
2018-03-18T21:12:10.889Z,92829.09
2018-03-18T21:14:38.883Z,92822.36
2018-03-18T21:17:06.798Z,92817.72
2018-03-18T21:19:34.606Z,92807.42
2018-03-18T21:22:02.855Z,92811.23
2018-03-18T21:24:30.560Z,92816.61
2018-03-18T21:26:58.701Z,92822.17
2018-03-18T21:29:28.995Z,92816.00
2018-03-18T21:31:56.900Z,92818.47
2018-03-18T21:34:37.448Z,92815.32
2018-03-18T21:37:05.345Z,92820.16
2018-03-18T21:39:33.785Z,92820.64
2018-03-18T21:42:02.071Z,92818.42
2018-03-18T21:44:29.763Z,92816.51
2018-03-18T21:46:57.454Z,92826.20
2018-03-18T21:49:25.086Z,92828.55
2018-03-18T21:51:52.756Z,92830.23
2018-03-18T21:54:20.408Z,92830.84
2018-03-18T21:56:48.013Z,92833.50
2018-03-18T21:59:15.665Z,92831.59
2018-03-18T22:01:43.338Z,92828.48
2018-03-18T22:04:10.966Z,92822.15
2018-03-18T22:06:38.691Z,92829.91
2018-03-18T22:09:06.315Z,92825.62
2018-03-18T22:11:34.632Z,92826.63
2018-03-18T22:14:02.345Z,92820.65
2018-03-18T22:16:30.270Z,92822.20
2018-03-18T22:18:58.014Z,92824.58
2018-03-18T22:21:25.676Z,92823.00
2018-03-18T22:23:53.346Z,92819.50
2018-03-18T22:26:21.210Z,92830.32
2018-03-18T22:28:48.871Z,92826.59
2018-03-18T22:31:16.590Z,92831.44
2018-03-18T22:33:44.621Z,92828.35
2018-03-18T22:36:12.699Z,92834.37
2018-03-18T22:38:40.761Z,92833.20
2018-03-18T22:41:08.642Z,92835.83
2018-03-18T22:43:36.553Z,92838.87
2018-03-18T22:46:04.556Z,92832.49
2018-03-18T22:48:32.283Z,92834.99
2018-03-18T22:51:00.710Z,92832.91
2018-03-18T22:53:28.445Z,92834.13
2018-03-18T22:55:56.706Z,92830.03
2018-03-18T22:58:24.944Z,92819.22
2018-03-18T23:00:52.972Z,92822.66
2018-03-18T23:03:20.735Z,92826.63
2018-03-18T23:05:48.705Z,92823.09
2018-03-18T23:08:16.585Z,92823.13
2018-03-18T23:10:44.204Z,92820.77
2018-03-18T23:13:12.597Z,92825.76
2018-03-18T23:15:40.409Z,92826.88
2018-03-18T23:18:08.165Z,92831.34
2018-03-18T23:20:35.927Z,92820.67
2018-03-18T23:23:03.600Z,92826.50
2018-03-18T23:25:32.406Z,92828.36
2018-03-18T23:28:00.072Z,92826.25
2018-03-18T23:30:28.240Z,92828.66
2018-03-18T23:32:56.452Z,92831.38
2018-03-18T23:35:24.089Z,92839.13
2018-03-18T23:37:51.756Z,92830.98
2018-03-18T23:40:19.401Z,92831.59
2018-03-18T23:42:47.087Z,92825.82
2018-03-18T23:45:14.686Z,92823.66
2018-03-18T23:47:42.274Z,92828.61
2018-03-18T23:50:10.121Z,92832.69
2018-03-18T23:52:39.376Z,92827.64
2018-03-18T23:55:07.043Z,92828.41
2018-03-18T23:57:34.734Z,92829.54
